Time;durP1;ratioP1;P1;durP2;ratioP2;P2;SDS_P1;SDS_P2;PMS_P1;PMS_P2;Temp;Humidity;BMP_temperature;BMP_pressure;BME280_temperature;BME280_humidity;BME280_pressure;Samples;Min_cycle;Max_cycle;Signal;HPM_P1;HPM_P2
2023/09/14 00:01:11;;;;;;;6.95;2.20;;;17.00;99.90;;;;;;4949234;29;20027;-74
2023/09/14 00:03:37;;;;;;;5.25;1.70;;;17.00;99.90;;;;;;4951564;28;20504;-74
2023/09/14 00:06:03;;;;;;;7.57;2.00;;;17.00;99.90;;;;;;4962498;28;20027;-74
2023/09/14 00:08:30;;;;;;;7.18;2.28;;;17.00;99.90;;;;;;4963358;28;20019;-74
2023/09/14 00:11:01;;;;;;;6.13;2.00;;;17.00;99.90;;;;;;4954028;28;20046;-74
2023/09/14 00:13:27;;;;;;;8.50;2.25;;;17.00;99.90;;;;;;4941155;28;20464;-74
2023/09/14 00:15:52;;;;;;;8.07;2.08;;;17.00;99.90;;;;;;4955909;28;20027;-74
2023/09/14 00:18:22;;;;;;;6.85;1.95;;;17.00;99.90;;;;;;4962813;28;20075;-74
2023/09/14 00:20:48;;;;;;;6.57;1.85;;;17.00;99.90;;;;;;4962804;28;20325;-74
2023/09/14 00:23:14;;;;;;;7.75;1.75;;;17.00;99.90;;;;;;4955570;28;20556;-74
2023/09/14 00:25:39;;;;;;;6.75;2.30;;;16.90;99.90;;;;;;4957867;28;20035;-74
2023/09/14 00:28:05;;;;;;;6.07;2.00;;;17.00;99.90;;;;;;4946365;28;20500;-74
2023/09/14 00:30:31;;;;;;;6.55;2.17;;;17.00;99.90;;;;;;4958482;28;20023;-74
2023/09/14 00:32:57;;;;;;;8.75;2.17;;;16.90;99.90;;;;;;4955283;28;20047;-75
2023/09/14 00:35:22;;;;;;;6.95;2.50;;;16.90;99.90;;;;;;4961685;28;20059;-74
2023/09/14 00:37:48;;;;;;;8.63;2.40;;;16.90;99.90;;;;;;4963010;28;20027;-74
2023/09/14 00:40:15;;;;;;;8.70;2.30;;;17.00;99.90;;;;;;4955001;28;20046;-74
2023/09/14 00:42:46;;;;;;;7.65;2.47;;;16.90;99.90;;;;;;4957975;28;20032;-74
2023/09/14 00:45:14;;;;;;;7.38;1.92;;;16.90;99.90;;;;;;4962919;28;20015;-74
2023/09/14 00:47:45;;;;;;;4.88;1.90;;;16.90;99.90;;;;;;4959731;28;20548;-72
2023/09/14 00:50:15;;;;;;;9.88;2.15;;;16.90;99.90;;;;;;4955041;28;20023;-74
2023/09/14 00:52:41;;;;;;;5.97;2.10;;;16.90;99.90;;;;;;4959424;28;20141;-74
2023/09/14 00:55:08;;;;;;;8.75;1.90;;;16.90;99.90;;;;;;4962800;28;20097;-74
2023/09/14 00:57:36;;;;;;;7.00;2.33;;;16.90;99.90;;;;;;4956949;28;20050;-74
2023/09/14 01:00:06;;;;;;;7.50;2.35;;;16.90;99.90;;;;;;4954983;28;20433;-75
2023/09/14 01:02:35;;;;;;;7.15;2.30;;;16.90;99.90;;;;;;4962264;28;20015;-74
2023/09/14 01:05:03;;;;;;;9.18;2.25;;;17.00;99.90;;;;;;4961923;28;20082;-74
2023/09/14 01:07:28;;;;;;;7.82;2.10;;;16.90;99.90;;;;;;4950435;28;20011;-74
2023/09/14 01:09:55;;;;;;;6.40;2.20;;;16.90;99.90;;;;;;4957288;28;20487;-74
2023/09/14 01:12:21;;;;;;;8.13;2.00;;;16.90;99.90;;;;;;4953129;28;20022;-74
2023/09/14 01:15:01;;;;;;;5.70;2.35;;;16.90;99.90;;;;;;4962395;28;20031;-74
2023/09/14 01:17:53;;;;;;;6.30;1.75;;;17.00;99.90;;;;;;4962486;28;20479;-74
2023/09/14 01:21:04;;;;;;;9.20;2.45;;;16.90;99.90;;;;;;4947612;28;20034;-75
2023/09/14 01:23:36;;;;;;;8.13;2.80;;;16.90;99.90;;;;;;4847602;29;20041;-73
2023/09/14 01:26:03;;;;;;;9.02;2.50;;;17.00;99.90;;;;;;4857560;29;20072;-75
2023/09/14 01:28:28;;;;;;;12.13;2.78;;;16.90;99.90;;;;;;4864655;29;20044;-74
2023/09/14 01:30:54;;;;;;;6.80;1.85;;;16.90;99.90;;;;;;4848102;29;20504;-75
2023/09/14 01:33:24;;;;;;;7.78;2.15;;;16.90;99.90;;;;;;4857621;29;20036;-74
2023/09/14 01:36:03;;;;;;;7.55;2.30;;;16.90;99.90;;;;;;4860453;29;20049;-75
2023/09/14 01:38:30;;;;;;;5.15;2.08;;;16.90;99.90;;;;;;4865021;29;20082;-74
2023/09/14 01:40:57;;;;;;;11.75;2.35;;;16.90;99.90;;;;;;4861810;29;20049;-75
2023/09/14 01:43:23;;;;;;;9.32;2.20;;;16.90;99.90;;;;;;4841660;29;20230;-75
2023/09/14 01:45:49;;;;;;;9.18;2.30;;;16.90;99.90;;;;;;4861815;29;20611;-74
2023/09/14 01:48:17;;;;;;;6.53;2.25;;;16.90;99.90;;;;;;4865221;29;20098;-74
2023/09/14 01:50:43;;;;;;;12.07;2.53;;;16.90;99.90;;;;;;4858861;29;20033;-74
2023/09/14 01:53:10;;;;;;;6.88;2.20;;;16.90;99.90;;;;;;4858046;29;20047;-74
2023/09/14 01:55:35;;;;;;;10.07;2.70;;;16.80;99.90;;;;;;4864354;29;20160;-75
2023/09/14 01:58:01;;;;;;;7.00;2.10;;;16.80;99.90;;;;;;4862835;29;20615;-74
2023/09/14 02:00:27;;;;;;;9.68;2.40;;;16.70;99.90;;;;;;4915997;28;20045;-74
2023/09/14 02:02:53;;;;;;;10.60;2.22;;;16.70;99.90;;;;;;4958632;28;20027;-75
2023/09/14 02:05:19;;;;;;;9.57;2.20;;;16.70;99.90;;;;;;4949325;28;20024;-74
2023/09/14 02:07:45;;;;;;;9.55;2.55;;;16.70;99.90;;;;;;4960448;28;20050;-74
2023/09/14 02:10:10;;;;;;;7.03;2.47;;;16.70;99.90;;;;;;4961468;28;20494;-75
2023/09/14 02:12:36;;;;;;;9.45;2.40;;;16.60;99.90;;;;;;4962119;28;20147;-75
2023/09/14 02:15:02;;;;;;;6.50;2.50;;;16.60;99.90;;;;;;4955769;28;20033;-72
2023/09/14 02:17:30;;;;;;;7.05;2.00;;;16.50;99.90;;;;;;4954287;28;20019;-73
2023/09/14 02:19:58;;;;;;;13.43;2.50;;;16.50;99.90;;;;;;4944607;28;20026;-75
2023/09/14 02:22:23;;;;;;;8.40;2.10;;;16.40;99.90;;;;;;4959614;28;20019;-75
2023/09/14 02:24:49;;;;;;;10.20;2.47;;;16.40;99.90;;;;;;4956073;28;20524;-75
2023/09/14 02:27:15;;;;;;;8.18;2.42;;;16.40;99.90;;;;;;4961811;28;20035;-75
2023/09/14 02:29:41;;;;;;;4.85;1.83;;;16.30;99.90;;;;;;4956797;28;20019;-74
2023/09/14 02:32:08;;;;;;;9.80;2.45;;;16.30;99.90;;;;;;4963641;28;20033;-74
2023/09/14 02:34:33;;;;;;;7.50;2.90;;;16.30;99.90;;;;;;4934835;28;20023;-74
2023/09/14 02:36:59;;;;;;;5.93;1.73;;;16.30;99.90;;;;;;4965415;28;20419;-75
2023/09/14 02:39:25;;;;;;;5.43;1.95;;;16.30;99.90;;;;;;4963536;28;20039;-75
2023/09/14 02:41:50;;;;;;;8.68;2.22;;;16.30;99.90;;;;;;4953967;28;20102;-74
2023/09/14 02:44:16;;;;;;;8.57;2.17;;;16.30;99.90;;;;;;4961793;28;20034;-75
2023/09/14 02:46:42;;;;;;;8.25;2.40;;;16.20;99.90;;;;;;4957365;28;20130;-74
2023/09/14 02:49:08;;;;;;;6.63;2.60;;;16.20;99.90;;;;;;4962993;28;20015;-74
2023/09/14 02:51:33;;;;;;;5.50;2.53;;;16.20;99.90;;;;;;4965197;28;20097;-75
2023/09/14 02:53:59;;;;;;;9.85;2.30;;;16.10;99.90;;;;;;4957689;28;20496;-75
2023/09/14 02:56:24;;;;;;;10.20;2.55;;;16.10;99.90;;;;;;4959339;28;20070;-74
2023/09/14 02:58:51;;;;;;;8.45;3.05;;;16.10;99.90;;;;;;4965276;28;20513;-75
2023/09/14 03:01:17;;;;;;;7.35;2.22;;;16.00;99.90;;;;;;4961418;28;20370;-75
2023/09/14 03:03:43;;;;;;;9.40;2.40;;;16.00;99.90;;;;;;4957031;28;20098;-74
2023/09/14 03:06:08;;;;;;;8.23;2.47;;;16.00;99.90;;;;;;4962256;28;20030;-75
2023/09/14 03:08:34;;;;;;;8.02;2.63;;;16.00;99.90;;;;;;4965148;28;20406;-74
2023/09/14 03:11:00;;;;;;;6.10;2.35;;;15.90;99.90;;;;;;4954623;28;20394;-74
2023/09/14 03:13:26;;;;;;;7.05;2.30;;;15.90;99.90;;;;;;4959851;28;20031;-75
2023/09/14 03:15:54;;;;;;;8.05;2.45;;;15.90;99.90;;;;;;4956686;28;20564;-74
2023/09/14 03:18:20;;;;;;;5.68;2.17;;;15.80;99.90;;;;;;4963825;28;20118;-76
2023/09/14 03:20:46;;;;;;;7.75;2.70;;;15.80;99.90;;;;;;4963671;28;20492;-74
2023/09/14 03:23:11;;;;;;;9.65;2.78;;;15.70;99.90;;;;;;4957225;28;20436;-74
2023/09/14 03:25:37;;;;;;;7.82;2.40;;;15.70;99.90;;;;;;4959687;28;20069;-75
2023/09/14 03:28:03;;;;;;;6.15;1.88;;;15.60;99.90;;;;;;4964843;28;20019;-75
2023/09/14 03:30:29;;;;;;;7.25;2.85;;;15.60;99.90;;;;;;4958679;28;20030;-74
2023/09/14 03:32:54;;;;;;;7.18;2.72;;;15.60;99.90;;;;;;4950600;28;20035;-74
2023/09/14 03:35:20;;;;;;;6.70;2.45;;;15.50;99.90;;;;;;4963436;28;20618;-74
2023/09/14 03:37:46;;;;;;;8.00;2.28;;;15.50;99.90;;;;;;4963635;28;20031;-74
2023/09/14 03:40:11;;;;;;;8.82;2.40;;;15.50;99.90;;;;;;4947007;28;20413;-74
2023/09/14 03:42:37;;;;;;;8.73;2.47;;;15.40;99.90;;;;;;4959586;28;20474;-74
2023/09/14 03:45:04;;;;;;;6.78;2.20;;;15.40;99.90;;;;;;4962759;28;20070;-74
2023/09/14 03:47:30;;;;;;;10.38;2.40;;;15.40;99.90;;;;;;4959333;28;20035;-74
2023/09/14 03:49:55;;;;;;;5.03;2.20;;;15.40;99.90;;;;;;4956260;28;20030;-74
2023/09/14 03:52:21;;;;;;;6.97;2.55;;;15.30;99.90;;;;;;4963304;28;20030;-73
2023/09/14 03:54:46;;;;;;;7.88;2.22;;;15.30;99.90;;;;;;4962878;28;20508;-74
2023/09/14 03:57:15;;;;;;;8.43;2.30;;;15.30;99.90;;;;;;4956389;28;20027;-75
2023/09/14 03:59:42;;;;;;;6.32;2.20;;;15.30;99.90;;;;;;4958870;28;20019;-74
2023/09/14 04:02:09;;;;;;;7.40;2.67;;;15.30;99.90;;;;;;4962918;28;20034;-74
2023/09/14 04:04:35;;;;;;;7.20;2.25;;;15.30;99.90;;;;;;4974004;28;20086;-75
2023/09/14 04:07:00;;;;;;;7.65;2.33;;;15.20;99.90;;;;;;4956479;28;20110;-74
2023/09/14 04:09:29;;;;;;;4.22;2.10;;;15.20;99.90;;;;;;4962222;28;20115;-74
2023/09/14 04:11:56;;;;;;;7.47;2.38;;;15.20;99.90;;;;;;4952634;28;20030;-74
2023/09/14 04:14:22;;;;;;;8.98;2.13;;;15.20;99.90;;;;;;4963800;28;20162;-74
2023/09/14 04:16:48;;;;;;;8.73;2.20;;;15.10;99.90;;;;;;4958512;28;20504;-74
2023/09/14 04:19:14;;;;;;;6.90;1.95;;;15.10;99.90;;;;;;4955615;28;20031;-75
2023/09/14 04:21:43;;;;;;;4.88;1.83;;;15.10;99.90;;;;;;4962923;28;20679;-74
2023/09/14 04:24:12;;;;;;;3.80;1.88;;;15.10;99.90;;;;;;4962080;28;20027;-74
2023/09/14 04:26:38;;;;;;;5.38;2.10;;;15.10;99.90;;;;;;4967572;28;20098;-74
2023/09/14 04:29:04;;;;;;;4.38;1.83;;;15.00;99.90;;;;;;4958220;28;20035;-74
2023/09/14 04:31:29;;;;;;;5.03;2.03;;;15.00;99.90;;;;;;4963111;28;20034;-74
2023/09/14 04:33:56;;;;;;;3.28;1.58;;;15.00;99.90;;;;;;4958812;28;20022;-74
2023/09/14 04:36:22;;;;;;;5.57;2.10;;;15.00;99.90;;;;;;4953668;28;20118;-74
2023/09/14 04:38:49;;;;;;;7.47;2.10;;;14.90;99.90;;;;;;4961607;28;20027;-75
2023/09/14 04:41:15;;;;;;;3.83;1.85;;;14.90;99.90;;;;;;4944881;28;20069;-74
2023/09/14 04:43:40;;;;;;;4.43;2.00;;;14.90;99.90;;;;;;4954878;28;20465;-74
2023/09/14 04:46:06;;;;;;;3.83;1.90;;;14.90;99.90;;;;;;4957646;28;20035;-74
2023/09/14 04:48:32;;;;;;;6.80;2.78;;;14.90;99.90;;;;;;4963209;28;20023;-74
2023/09/14 04:50:59;;;;;;;6.03;2.20;;;14.90;99.90;;;;;;4949391;29;20027;-74
2023/09/14 04:53:26;;;;;;;6.18;2.50;;;14.80;99.90;;;;;;4945648;28;20568;-74
2023/09/14 04:55:51;;;;;;;8.18;2.72;;;14.80;99.90;;;;;;4956994;28;20023;-74
2023/09/14 04:58:17;;;;;;;8.73;2.78;;;14.80;99.90;;;;;;4948203;29;20394;-74
2023/09/14 05:00:43;;;;;;;7.10;2.58;;;14.80;99.90;;;;;;4962741;28;20393;-74
2023/09/14 05:03:09;;;;;;;10.32;3.10;;;14.80;99.90;;;;;;4960600;28;20852;-74
2023/09/14 05:05:34;;;;;;;7.72;2.90;;;14.80;99.90;;;;;;4962449;28;20027;-74
2023/09/14 05:08:00;;;;;;;7.22;3.08;;;14.80;99.90;;;;;;4959008;28;20616;-74
2023/09/14 05:10:26;;;;;;;6.07;2.92;;;14.70;99.90;;;;;;4954367;28;20023;-74
2023/09/14 05:12:52;;;;;;;9.50;3.08;;;14.70;99.90;;;;;;4954943;28;20481;-74
2023/09/14 05:15:18;;;;;;;10.98;3.03;;;14.70;99.90;;;;;;4940898;29;20034;-74
2023/09/14 05:17:44;;;;;;;6.22;3.00;;;14.70;99.90;;;;;;4958350;28;20030;-74
2023/09/14 05:20:11;;;;;;;8.98;3.50;;;14.70;99.90;;;;;;4959742;28;20025;-74
2023/09/14 05:22:38;;;;;;;6.90;2.50;;;14.70;99.90;;;;;;4949236;28;20114;-74
2023/09/14 05:25:04;;;;;;;9.15;3.60;;;14.70;99.90;;;;;;4966368;28;20126;-74
2023/09/14 05:27:40;;;;;;;11.23;3.42;;;14.70;99.90;;;;;;4964652;28;20050;-74
2023/09/14 05:30:08;;;;;;;11.20;3.80;;;14.70;99.90;;;;;;4964052;28;20027;-74
2023/09/14 05:32:35;;;;;;;8.07;3.35;;;14.70;99.90;;;;;;4963370;28;20109;-75
2023/09/14 05:35:01;;;;;;;9.07;3.53;;;14.70;99.90;;;;;;4954244;28;20035;-74
2023/09/14 05:37:27;;;;;;;11.70;3.72;;;14.70;99.90;;;;;;4958444;28;20027;-74
2023/09/14 05:39:53;;;;;;;6.15;2.88;;;14.70;99.90;;;;;;4962219;28;20084;-74
2023/09/14 05:42:19;;;;;;;6.97;2.92;;;14.70;99.90;;;;;;4937556;28;20072;-74
2023/09/14 05:44:45;;;;;;;11.02;3.42;;;14.70;99.90;;;;;;4954501;28;20034;-74
2023/09/14 05:47:11;;;;;;;9.77;3.67;;;14.70;99.90;;;;;;4939506;28;20015;-74
2023/09/14 05:49:37;;;;;;;9.50;3.83;;;14.70;99.90;;;;;;4954057;28;20038;-74
2023/09/14 05:52:03;;;;;;;8.20;3.90;;;14.70;99.90;;;;;;4962393;28;20038;-74
2023/09/14 05:54:28;;;;;;;11.23;3.78;;;14.70;99.90;;;;;;4941285;28;20028;-73
2023/09/14 05:56:54;;;;;;;9.98;3.88;;;14.70;99.90;;;;;;4947983;28;20715;-74
2023/09/14 05:59:21;;;;;;;11.07;4.00;;;14.80;99.90;;;;;;4959986;28;20031;-73
2023/09/14 06:01:46;;;;;;;9.50;4.03;;;14.80;99.90;;;;;;4948819;28;20050;-74
2023/09/14 06:04:12;;;;;;;7.93;3.47;;;14.90;99.90;;;;;;4965903;28;20374;-74
2023/09/14 06:06:38;;;;;;;8.38;3.63;;;14.90;99.90;;;;;;4955305;28;20078;-74
2023/09/14 06:09:04;;;;;;;8.45;3.55;;;14.90;99.90;;;;;;4962104;28;20442;-73
2023/09/14 06:11:30;;;;;;;8.35;3.80;;;14.90;99.90;;;;;;4954976;28;20037;-73
2023/09/14 06:13:56;;;;;;;10.02;3.90;;;14.90;99.90;;;;;;4955497;28;20486;-74
2023/09/14 06:16:21;;;;;;;9.55;3.67;;;14.90;99.90;;;;;;4958082;28;20059;-74
2023/09/14 06:18:47;;;;;;;9.43;3.75;;;15.00;99.90;;;;;;4953081;28;20035;-73
2023/09/14 06:21:13;;;;;;;8.75;3.65;;;15.00;99.90;;;;;;4950470;28;20034;-74
2023/09/14 06:23:41;;;;;;;9.98;3.90;;;15.00;99.90;;;;;;4940353;28;20043;-74
2023/09/14 06:26:07;;;;;;;9.68;4.32;;;15.00;99.90;;;;;;4959965;28;20565;-74
2023/09/14 06:28:33;;;;;;;12.60;4.60;;;15.00;99.90;;;;;;4955047;28;20054;-74
2023/09/14 06:30:59;;;;;;;12.23;4.00;;;15.10;99.90;;;;;;4954828;28;20047;-74
2023/09/14 06:33:24;;;;;;;9.40;3.80;;;15.10;99.90;;;;;;4956337;28;20105;-73
2023/09/14 06:35:50;;;;;;;8.55;3.25;;;15.10;99.90;;;;;;4947040;28;20067;-73
2023/09/14 06:38:16;;;;;;;10.48;4.28;;;15.20;99.90;;;;;;4956063;28;20394;-74
2023/09/14 06:40:41;;;;;;;10.80;4.38;;;15.20;99.90;;;;;;4950490;28;20121;-73
2023/09/14 06:43:07;;;;;;;10.25;3.75;;;15.20;99.90;;;;;;4953255;28;20471;-74
2023/09/14 06:45:33;;;;;;;10.40;4.13;;;15.30;99.90;;;;;;4959549;28;20495;-74
2023/09/14 06:48:00;;;;;;;8.70;3.83;;;15.30;99.90;;;;;;4970759;28;20031;-73
2023/09/14 06:50:25;;;;;;;12.45;4.18;;;15.30;99.90;;;;;;4960921;28;20019;-73
2023/09/14 06:52:51;;;;;;;10.23;3.78;;;15.40;99.90;;;;;;4956611;28;20790;-74
2023/09/14 06:55:17;;;;;;;9.27;3.50;;;15.40;99.90;;;;;;4952538;28;20604;-74
2023/09/14 06:57:43;;;;;;;8.93;3.70;;;15.50;99.90;;;;;;4963000;28;20035;-74
2023/09/14 07:00:16;;;;;;;8.68;3.55;;;15.50;99.90;;;;;;4964877;28;20110;-73
2023/09/14 07:02:45;;;;;;;8.50;3.85;;;15.50;99.90;;;;;;4948102;28;20023;-74
2023/09/14 07:05:12;;;;;;;10.98;3.58;;;15.50;99.90;;;;;;4962286;28;20033;-74
2023/09/14 07:07:38;;;;;;;11.43;4.32;;;15.50;99.90;;;;;;4956688;28;20489;-74
2023/09/14 07:10:05;;;;;;;7.38;3.78;;;15.50;99.90;;;;;;4958456;28;20389;-73
2023/09/14 07:12:30;;;;;;;9.00;2.88;;;15.50;99.90;;;;;;4965150;28;20027;-74
2023/09/14 07:14:56;;;;;;;10.88;4.25;;;15.50;99.90;;;;;;4957883;28;20381;-73
2023/09/14 07:17:22;;;;;;;7.38;3.20;;;15.60;99.90;;;;;;4956024;28;20045;-73
2023/09/14 07:19:48;;;;;;;7.03;3.55;;;15.60;99.90;;;;;;4953590;28;20035;-73
2023/09/14 07:22:15;;;;;;;13.35;3.28;;;15.70;99.90;;;;;;4951270;28;20035;-73
2023/09/14 07:24:40;;;;;;;10.35;3.00;;;15.70;99.90;;;;;;4965981;28;20106;-73
2023/09/14 07:27:06;;;;;;;10.93;3.25;;;15.80;99.90;;;;;;4982974;28;20033;-73
2023/09/14 07:29:33;;;;;;;9.50;3.30;;;15.80;99.90;;;;;;4963604;28;20107;-73
2023/09/14 07:31:58;;;;;;;11.52;3.45;;;15.90;99.90;;;;;;4958497;28;20019;-73
2023/09/14 07:34:24;;;;;;;9.55;3.22;;;15.90;99.90;;;;;;4957969;28;20033;-73
2023/09/14 07:36:50;;;;;;;10.57;3.05;;;15.90;99.90;;;;;;4962441;28;20022;-73
2023/09/14 07:39:15;;;;;;;8.93;3.08;;;16.00;99.90;;;;;;4951658;28;20161;-73
2023/09/14 07:41:44;;;;;;;9.48;3.25;;;16.10;99.90;;;;;;4940662;28;20489;-74
2023/09/14 07:44:10;;;;;;;9.88;2.80;;;16.10;99.90;;;;;;4943143;28;20031;-72
2023/09/14 07:46:37;;;;;;;9.98;2.95;;;16.10;99.90;;;;;;4953023;28;20344;-73
2023/09/14 07:49:03;;;;;;;9.98;3.42;;;16.10;99.90;;;;;;4951263;28;20257;-73
2023/09/14 07:51:28;;;;;;;8.60;2.60;;;16.20;99.90;;;;;;4938906;29;20030;-73
2023/09/14 07:53:55;;;;;;;11.30;3.75;;;16.20;99.90;;;;;;4952136;28;20034;-74
2023/09/14 07:56:22;;;;;;;10.55;3.78;;;16.30;99.90;;;;;;4955391;28;20107;-73
2023/09/14 07:58:47;;;;;;;12.73;3.45;;;16.30;99.90;;;;;;4963603;28;20023;-74
2023/09/14 08:01:13;;;;;;;10.50;3.28;;;16.40;99.90;;;;;;4939496;29;20050;-75
2023/09/14 08:03:39;;;;;;;11.65;3.40;;;16.40;99.90;;;;;;4953517;28;20023;-73
2023/09/14 08:06:05;;;;;;;11.98;3.63;;;16.40;99.90;;;;;;4939288;29;20505;-74
2023/09/14 08:08:33;;;;;;;11.60;3.55;;;16.50;99.90;;;;;;4947445;28;20039;-73
2023/09/14 08:11:06;;;;;;;10.95;3.40;;;16.60;99.90;;;;;;4956913;28;20019;-74
2023/09/14 08:13:32;;;;;;;13.10;3.65;;;16.60;99.90;;;;;;4947891;28;20514;-73
2023/09/14 08:16:03;;;;;;;8.70;3.55;;;16.60;99.90;;;;;;4963355;28;20023;-73
2023/09/14 08:18:29;;;;;;;10.93;3.30;;;16.70;99.90;;;;;;4958261;28;20071;-73
2023/09/14 08:20:55;;;;;;;12.82;3.63;;;16.70;99.90;;;;;;4948734;28;20031;-73
2023/09/14 08:23:20;;;;;;;9.48;3.08;;;16.70;99.90;;;;;;4963017;28;20443;-73
2023/09/14 08:25:47;;;;;;;9.75;3.28;;;16.80;99.90;;;;;;4961506;28;20042;-73
2023/09/14 08:28:14;;;;;;;10.85;3.63;;;16.90;99.90;;;;;;4955700;28;20089;-74
2023/09/14 08:30:41;;;;;;;10.35;3.13;;;16.90;99.90;;;;;;4958846;28;20036;-74
2023/09/14 08:33:07;;;;;;;12.27;4.15;;;17.00;99.90;;;;;;4946027;28;20142;-74
2023/09/14 08:35:35;;;;;;;14.27;3.63;;;17.10;99.90;;;;;;4957950;28;20023;-73
2023/09/14 08:38:05;;;;;;;11.52;3.60;;;17.10;99.90;;;;;;4953434;28;20031;-74
2023/09/14 08:40:31;;;;;;;8.75;3.47;;;17.10;99.90;;;;;;4945902;28;20051;-73
2023/09/14 08:42:59;;;;;;;13.27;3.92;;;17.20;99.90;;;;;;4962573;28;20549;-73
2023/09/14 08:45:26;;;;;;;9.65;3.15;;;17.30;99.90;;;;;;4967730;28;20038;-73
2023/09/14 08:47:53;;;;;;;13.35;3.90;;;17.30;99.90;;;;;;4957230;28;20027;-74
2023/09/14 08:50:20;;;;;;;10.88;3.30;;;17.40;99.90;;;;;;4962872;28;20699;-73
2023/09/14 08:52:46;;;;;;;10.57;3.17;;;17.50;99.90;;;;;;4957909;28;20015;-76
2023/09/14 08:55:13;;;;;;;13.90;3.97;;;17.60;99.90;;;;;;4953081;28;20034;-75
2023/09/14 08:57:43;;;;;;;11.65;4.45;;;17.60;99.90;;;;;;4957743;28;20033;-75
2023/09/14 09:00:15;;;;;;;;;;;17.70;99.90;;;;;;4955638;28;20516;-75
2023/09/14 09:02:45;;;;;;;13.57;3.40;;;17.70;99.90;;;;;;4975597;28;20376;-75
2023/09/14 09:05:12;;;;;;;12.32;4.00;;;17.80;99.90;;;;;;4962835;28;20030;-75
2023/09/14 09:07:43;;;;;;;13.10;4.03;;;17.90;99.90;;;;;;4955663;28;20094;-75
2023/09/14 09:10:23;;;;;;;12.85;4.05;;;17.90;99.90;;;;;;4955555;28;20804;-76
2023/09/14 09:12:54;;;;;;;11.98;4.18;;;18.00;99.90;;;;;;4960275;28;20114;-76
2023/09/14 09:15:22;;;;;;;12.07;4.30;;;18.10;99.90;;;;;;4957384;28;20026;-75
2023/09/14 09:17:52;;;;;;;11.30;4.93;;;18.10;99.90;;;;;;4955124;28;20031;-75
2023/09/14 09:20:22;;;;;;;13.10;6.00;;;18.20;99.90;;;;;;4959911;28;20027;-75
2023/09/14 09:22:50;;;;;;;11.00;5.00;;;18.30;99.90;;;;;;4962827;28;20023;-75
2023/09/14 09:25:20;;;;;;;9.82;4.50;;;18.30;99.90;;;;;;4956865;28;20019;-76
2023/09/14 09:27:46;;;;;;;9.88;4.32;;;18.40;99.90;;;;;;4954367;28;20030;-76
2023/09/14 09:30:13;;;;;;;9.05;4.00;;;18.50;99.90;;;;;;4960700;28;20023;-76
2023/09/14 09:32:42;;;;;;;11.77;4.88;;;18.50;99.90;;;;;;4960800;28;20090;-77
2023/09/14 09:35:23;;;;;;;11.63;4.65;;;18.50;99.90;;;;;;4950047;28;20114;-76
2023/09/14 09:37:50;;;;;;;12.63;5.07;;;18.60;99.90;;;;;;4951526;28;20110;-77
2023/09/14 09:40:18;;;;;;;11.77;4.18;;;18.70;99.90;;;;;;4951199;28;20039;-77
2023/09/14 09:42:44;;;;;;;8.57;3.75;;;18.70;99.90;;;;;;4959701;28;20026;-76
2023/09/14 09:45:12;;;;;;;11.48;4.20;;;18.80;99.90;;;;;;4950874;28;20483;-76
2023/09/14 09:47:38;;;;;;;10.27;3.88;;;18.80;99.90;;;;;;4958353;28;20026;-76
2023/09/14 09:50:12;;;;;;;13.25;4.35;;;19.00;99.90;;;;;;4929654;29;20079;-76
2023/09/14 09:52:40;;;;;;;9.98;4.25;;;19.00;99.90;;;;;;4950672;28;20106;-76
2023/09/14 09:55:07;;;;;;;12.52;4.25;;;19.10;99.90;;;;;;4949020;28;20394;-76
2023/09/14 09:57:36;;;;;;;7.28;3.38;;;19.30;99.90;;;;;;4937175;29;20050;-76
2023/09/14 10:00:12;;;;;;;8.75;3.28;;;19.30;99.90;;;;;;4962285;28;20038;-76
2023/09/14 10:02:37;;;;;;;8.27;3.33;;;19.40;99.90;;;;;;4955045;28;20019;-77
2023/09/14 10:05:03;;;;;;;9.73;3.58;;;19.50;99.90;;;;;;4948429;28;20035;-76
2023/09/14 10:07:29;;;;;;;9.82;3.53;;;19.50;99.90;;;;;;4954015;28;20389;-76
2023/09/14 10:09:55;;;;;;;5.78;2.72;;;19.50;99.90;;;;;;4956894;28;20039;-76
2023/09/14 10:12:26;;;;;;;10.02;3.45;;;19.60;99.90;;;;;;4951801;28;20035;-76
2023/09/14 10:14:58;;;;;;;;;;;19.70;99.90;;;;;;4942132;28;20039;-76
2023/09/14 10:17:28;;;;;;;10.10;3.75;;;19.70;99.90;;;;;;4954418;28;19906;-76
2023/09/14 10:19:55;;;;;;;11.15;3.30;;;19.80;99.90;;;;;;4944746;29;20472;-76
2023/09/14 10:22:22;;;;;;;7.95;3.38;;;19.70;99.90;;;;;;4941935;28;20030;-76
2023/09/14 10:24:50;;;;;;;7.53;3.70;;;19.80;99.90;;;;;;4953910;28;20023;-76
2023/09/14 10:27:16;;;;;;;9.38;3.90;;;19.80;99.90;;;;;;4957346;28;20030;-76
2023/09/14 10:29:43;;;;;;;7.43;3.08;;;19.90;99.90;;;;;;4962000;28;20043;-75
2023/09/14 10:32:15;;;;;;;7.90;3.10;;;19.80;99.90;;;;;;4956278;28;20885;-75
2023/09/14 10:34:41;;;;;;;8.25;3.33;;;19.80;99.90;;;;;;4935097;28;20053;-76
2023/09/14 10:37:11;;;;;;;8.32;3.47;;;19.80;99.90;;;;;;4955186;28;20027;-76
2023/09/14 10:39:37;;;;;;;7.25;3.50;;;19.80;99.90;;;;;;4952058;28;20620;-76
2023/09/14 10:42:06;;;;;;;6.70;2.80;;;19.80;99.90;;;;;;4944288;28;20034;-76
2023/09/14 10:44:32;;;;;;;7.35;3.00;;;19.80;99.90;;;;;;4959018;28;20031;-76
2023/09/14 10:47:01;;;;;;;9.82;3.10;;;19.80;99.90;;;;;;4965085;28;20027;-76
2023/09/14 10:49:33;;;;;;;5.78;2.80;;;19.70;99.90;;;;;;4962326;28;20035;-77
2023/09/14 10:52:00;;;;;;;9.50;3.28;;;19.70;99.90;;;;;;4969553;28;20065;-76
2023/09/14 10:54:27;;;;;;;7.25;3.03;;;19.60;99.90;;;;;;4961245;28;20053;-76
2023/09/14 10:56:56;;;;;;;5.30;2.80;;;19.70;99.90;;;;;;4964819;28;20392;-76
2023/09/14 10:59:52;;;;;;;6.15;2.47;;;19.70;99.90;;;;;;4959950;28;20081;-76
2023/09/14 11:02:36;;;;;;;6.90;3.17;;;19.80;99.90;;;;;;4955628;28;20027;-76
2023/09/14 11:05:12;;;;;;;8.75;3.30;;;19.80;99.90;;;;;;4967734;28;20031;-76
2023/09/14 11:07:39;;;;;;;5.65;2.47;;;19.90;99.90;;;;;;4944878;28;20027;-75
2023/09/14 11:10:07;;;;;;;7.65;3.13;;;20.10;99.90;;;;;;4958575;28;20019;-75
2023/09/14 11:12:33;;;;;;;7.32;2.72;;;20.20;99.90;;;;;;4962772;28;20045;-75
2023/09/14 11:15:23;;;;;;;6.03;2.58;;;20.30;99.90;;;;;;4952190;28;20633;-76
2023/09/14 11:17:53;;;;;;;6.53;2.70;;;20.50;99.90;;;;;;4963463;28;21502;-76
2023/09/14 11:20:27;;;;;;;5.93;2.65;;;20.60;99.90;;;;;;4955895;28;20045;-77
2023/09/14 11:23:00;;;;;;;4.95;2.35;;;20.70;99.90;;;;;;4957142;28;20031;-75
2023/09/14 11:25:30;;;;;;;5.57;2.25;;;20.80;99.90;;;;;;4953667;28;20486;-76
2023/09/14 11:28:00;;;;;;;6.63;2.65;;;20.90;99.90;;;;;;4952185;28;20030;-75
2023/09/14 11:30:27;;;;;;;5.70;2.35;;;21.00;99.90;;;;;;4951242;28;20030;-75
2023/09/14 11:32:54;;;;;;;10.23;3.10;;;21.10;99.90;;;;;;4949503;28;20034;-76
2023/09/14 11:35:40;;;;;;;7.88;3.10;;;21.10;99.90;;;;;;4968026;28;20019;-76
2023/09/14 11:38:22;;;;;;;10.20;3.33;;;21.00;99.90;;;;;;4952032;28;20051;-76
2023/09/14 11:40:48;;;;;;;7.20;2.53;;;20.90;99.90;;;;;;4950633;28;20051;-76
2023/09/14 11:43:27;;;;;;;7.43;2.88;;;20.80;99.90;;;;;;4962596;28;20398;-76
2023/09/14 11:45:58;;;;;;;5.95;2.70;;;20.80;99.90;;;;;;4960858;28;20023;-76
2023/09/14 11:48:28;;;;;;;5.35;2.70;;;20.70;99.90;;;;;;4947059;28;20034;-76
2023/09/14 11:50:54;;;;;;;8.13;3.10;;;20.70;99.90;;;;;;4956131;28;20366;-76
2023/09/14 11:53:22;;;;;;;8.85;3.20;;;20.70;99.90;;;;;;4953555;28;20031;-76
2023/09/14 11:55:49;;;;;;;6.90;2.97;;;20.60;99.90;;;;;;4952627;28;20030;-76
2023/09/14 11:58:16;;;;;;;7.05;3.10;;;20.60;99.90;;;;;;4951305;28;20023;-76
2023/09/14 12:00:49;;;;;;;6.03;2.63;;;20.60;99.90;;;;;;4968237;28;20018;-76
2023/09/14 12:03:15;;;;;;;7.75;2.58;;;20.60;99.90;;;;;;4948710;28;20424;-77
2023/09/14 12:05:41;;;;;;;9.65;3.15;;;20.60;99.90;;;;;;4964970;28;20019;-77
2023/09/14 12:08:17;;;;;;;6.70;3.38;;;20.60;99.90;;;;;;4963476;28;20023;-77
2023/09/14 12:10:44;;;;;;;6.75;3.00;;;20.60;99.90;;;;;;4944339;28;20397;-76
2023/09/14 12:13:17;;;;;;;7.30;2.70;;;20.60;99.90;;;;;;4949755;29;20078;-76
2023/09/14 12:15:46;;;;;;;5.97;2.78;;;20.60;99.90;;;;;;4934616;29;20572;-76
2023/09/14 12:18:16;;;;;;;6.95;2.80;;;20.60;99.90;;;;;;4950551;28;20019;-76
2023/09/14 12:20:47;;;;;;;6.30;2.65;;;20.60;99.90;;;;;;4962113;28;20114;-75
2023/09/14 12:23:13;;;;;;;5.72;2.55;;;20.70;99.90;;;;;;4953788;28;20015;-75
2023/09/14 12:25:40;;;;;;;9.52;2.92;;;20.60;99.90;;;;;;4965010;28;20027;-75
2023/09/14 12:28:08;;;;;;;5.95;2.60;;;20.70;99.90;;;;;;4944443;28;20397;-76
2023/09/14 12:30:36;;;;;;;6.93;2.97;;;20.70;99.90;;;;;;4961564;28;20034;-76
2023/09/14 12:33:03;;;;;;;7.10;2.78;;;20.60;99.90;;;;;;4957513;28;20460;-76
2023/09/14 12:35:30;;;;;;;7.88;2.85;;;20.70;99.90;;;;;;4958204;28;20127;-76
2023/09/14 12:38:03;;;;;;;8.15;3.22;;;20.70;99.90;;;;;;4953999;28;20106;-80
2023/09/14 12:40:37;;;;;;;7.00;2.50;;;20.80;99.90;;;;;;4961109;28;20071;-76
2023/09/14 12:43:04;;;;;;;8.05;2.97;;;20.80;99.90;;;;;;4932405;28;20112;-76
2023/09/14 12:45:35;;;;;;;5.10;2.33;;;20.80;99.90;;;;;;4962743;28;20027;-76
2023/09/14 12:48:03;;;;;;;5.50;2.78;;;20.70;99.90;;;;;;4960812;28;20046;-76